createdAt,value
2019-03-10T00:00:00.450Z,7.00
2019-03-10T00:01:04.118Z,7.40
2019-03-10T00:02:10.397Z,6.00
2019-03-10T00:03:12.464Z,6.40
2019-03-10T00:04:14.379Z,5.80
2019-03-10T00:05:16.357Z,6.80
2019-03-10T00:06:18.485Z,10.00
2019-03-10T00:07:20.158Z,6.40
2019-03-10T00:08:22.154Z,6.00
2019-03-10T00:09:23.872Z,4.60
2019-03-10T00:10:26.108Z,8.60
2019-03-10T00:11:28.207Z,8.20
2019-03-10T00:12:30.004Z,7.00
2019-03-10T00:13:32.099Z,6.60
2019-03-10T00:14:34.310Z,7.00
2019-03-10T00:15:36.543Z,5.00
2019-03-10T00:16:38.635Z,9.20
2019-03-10T00:17:40.920Z,5.00
2019-03-10T00:18:43.112Z,9.20
2019-03-10T00:19:45.484Z,6.60
2019-03-10T00:20:47.597Z,7.00
2019-03-10T00:21:49.635Z,6.80
2019-03-10T00:22:52.120Z,8.60
2019-03-10T00:23:55.147Z,6.20
2019-03-10T00:24:57.096Z,9.20
2019-03-10T00:25:59.342Z,8.00
2019-03-10T00:27:01.223Z,11.00
2019-03-10T00:28:03.496Z,8.60
2019-03-10T00:29:05.790Z,11.60
2019-03-10T00:30:12.177Z,5.20
2019-03-10T00:31:14.126Z,5.80
2019-03-10T00:32:16.379Z,5.60
2019-03-10T00:33:18.407Z,4.80
2019-03-10T00:34:20.403Z,7.00
2019-03-10T00:35:22.593Z,7.80
2019-03-10T00:36:26.726Z,5.00
2019-03-10T00:37:29.067Z,8.00
2019-03-10T00:38:42.437Z,6.60
2019-03-10T00:40:19.777Z,5.00
2019-03-10T00:41:35.736Z,5.60
2019-03-10T00:43:17.177Z,5.80
2019-03-10T00:44:49.133Z,6.40
2019-03-10T00:46:36.459Z,4.20
2019-03-10T00:48:26.083Z,4.00
2019-03-10T00:50:02.036Z,3.40
2019-03-10T00:51:47.026Z,4.00
2019-03-10T00:52:58.617Z,4.00
2019-03-10T00:54:00.811Z,4.40
2019-03-10T00:55:03.455Z,3.40
2019-03-10T00:56:05.560Z,3.00
2019-03-10T00:57:07.827Z,2.20
2019-03-10T00:58:10.091Z,4.40
2019-03-10T00:59:12.511Z,3.00
2019-03-10T01:00:16.793Z,2.80
2019-03-10T01:01:18.798Z,2.40
2019-03-10T01:02:21.342Z,2.00
2019-03-10T01:03:23.169Z,2.80
2019-03-10T01:04:25.271Z,3.80
2019-03-10T01:05:27.437Z,2.80
2019-03-10T01:06:29.244Z,3.20
2019-03-10T01:07:31.433Z,4.60
2019-03-10T01:08:33.394Z,2.60
2019-03-10T01:09:35.456Z,3.00
2019-03-10T01:10:37.906Z,2.00
2019-03-10T01:11:39.893Z,4.00
2019-03-10T01:12:42.591Z,4.00
2019-03-10T01:13:44.726Z,4.00
2019-03-10T01:14:48.176Z,3.80
2019-03-10T01:15:50.372Z,3.80
2019-03-10T01:16:53.213Z,3.00
2019-03-10T01:17:57.038Z,3.00
2019-03-10T01:18:59.518Z,3.80
2019-03-10T01:20:01.772Z,3.00
2019-03-10T01:21:04.772Z,3.00
2019-03-10T01:22:06.578Z,2.00
2019-03-10T01:23:08.567Z,4.00
2019-03-10T01:24:10.672Z,2.20
2019-03-10T01:25:14.426Z,3.20
2019-03-10T01:26:16.387Z,2.60
2019-03-10T01:27:18.223Z,3.00
2019-03-10T01:28:19.912Z,5.00
2019-03-10T01:29:22.200Z,3.00
2019-03-10T01:30:24.478Z,2.00
2019-03-10T01:31:41.087Z,2.00
2019-03-10T01:32:57.636Z,3.00
2019-03-10T01:34:11.144Z,3.00
2019-03-10T01:35:20.820Z,3.40
2019-03-10T01:36:22.521Z,3.00
2019-03-10T01:37:24.412Z,2.00
2019-03-10T01:38:26.619Z,3.00
2019-03-10T01:39:28.696Z,2.20
2019-03-10T01:40:30.371Z,2.60
2019-03-10T01:41:32.469Z,4.60
2019-03-10T01:42:34.343Z,3.00
2019-03-10T01:43:36.415Z,3.00
2019-03-10T01:44:38.454Z,1.80
2019-03-10T01:45:40.557Z,3.20
2019-03-10T01:46:42.269Z,4.00
2019-03-10T01:47:44.247Z,3.00
2019-03-10T01:48:46.001Z,2.80
2019-03-10T01:49:48.245Z,3.00
2019-03-10T01:50:50.246Z,2.80
2019-03-10T01:51:53.134Z,3.40
2019-03-10T01:52:55.011Z,3.80
2019-03-10T01:53:56.954Z,2.60
2019-03-10T01:54:58.881Z,2.00
2019-03-10T01:56:00.771Z,3.60
2019-03-10T01:57:02.858Z,3.00
2019-03-10T01:58:05.019Z,2.40
2019-03-10T01:59:07.098Z,2.00
2019-03-10T02:00:15.339Z,2.00
2019-03-10T02:01:18.868Z,2.00
2019-03-10T02:02:25.789Z,3.60
2019-03-10T02:03:24.585Z,3.00
2019-03-10T02:04:26.708Z,2.60
2019-03-10T02:05:28.654Z,3.80
2019-03-10T02:06:30.675Z,3.60
2019-03-10T02:07:32.682Z,4.00
2019-03-10T02:08:34.637Z,3.80
2019-03-10T02:09:36.808Z,4.40
2019-03-10T02:10:38.789Z,2.40
2019-03-10T02:11:40.686Z,2.80
2019-03-10T02:12:42.734Z,4.20
2019-03-10T02:13:44.698Z,2.60
2019-03-10T02:14:46.652Z,3.00
2019-03-10T02:15:48.712Z,3.00
2019-03-10T02:16:50.824Z,3.00
2019-03-10T02:17:52.854Z,3.00
2019-03-10T02:18:54.664Z,4.60
2019-03-10T02:19:56.659Z,2.00
2019-03-10T02:20:58.721Z,3.00
2019-03-10T02:22:00.472Z,3.00
2019-03-10T02:23:02.591Z,3.00
2019-03-10T02:24:04.846Z,3.60
2019-03-10T02:25:06.736Z,3.00
2019-03-10T02:26:08.794Z,2.20
2019-03-10T02:27:10.467Z,2.00
2019-03-10T02:28:13.276Z,2.00
2019-03-10T02:29:15.575Z,2.80
2019-03-10T02:30:17.962Z,4.40
2019-03-10T02:31:19.932Z,2.00
2019-03-10T02:32:21.784Z,2.20
2019-03-10T02:33:23.840Z,2.40
2019-03-10T02:34:25.809Z,3.00
2019-03-10T02:35:27.805Z,2.40
2019-03-10T02:36:29.630Z,2.80
2019-03-10T02:37:31.584Z,3.00
2019-03-10T02:38:33.632Z,2.40
2019-03-10T02:39:35.757Z,2.20
2019-03-10T02:40:37.769Z,3.00
2019-03-10T02:41:39.733Z,3.60
2019-03-10T02:42:41.690Z,3.40
2019-03-10T02:43:43.576Z,3.40
2019-03-10T02:44:45.696Z,2.00
2019-03-10T02:45:47.818Z,3.00
2019-03-10T02:46:50.011Z,3.00
2019-03-10T02:47:52.028Z,4.00
2019-03-10T02:48:53.695Z,3.00
2019-03-10T02:49:55.562Z,4.40
2019-03-10T02:50:57.611Z,3.20
2019-03-10T02:51:59.416Z,2.00
2019-03-10T02:53:01.516Z,3.80
2019-03-10T02:54:03.675Z,3.20
2019-03-10T02:55:07.273Z,4.00
2019-03-10T02:56:09.266Z,3.80
2019-03-10T02:57:10.991Z,3.60
2019-03-10T02:58:12.933Z,4.00
2019-03-10T02:59:15.332Z,3.00
2019-03-10T03:00:17.956Z,3.00
2019-03-10T03:01:20.404Z,2.00
2019-03-10T03:02:22.398Z,3.00
2019-03-10T03:03:24.588Z,2.60
2019-03-10T03:04:26.517Z,4.00
2019-03-10T03:05:28.570Z,1.60
2019-03-10T03:06:30.795Z,3.40
2019-03-10T03:07:32.890Z,3.00
2019-03-10T03:08:35.013Z,4.00
2019-03-10T03:09:37.400Z,3.00
2019-03-10T03:10:41.127Z,2.40
2019-03-10T03:11:43.313Z,2.80
2019-03-10T03:12:45.271Z,2.00
2019-03-10T03:13:47.335Z,2.00
2019-03-10T03:14:49.514Z,2.00
2019-03-10T03:15:51.325Z,2.40
2019-03-10T03:16:53.294Z,3.60
2019-03-10T03:17:55.468Z,2.00
2019-03-10T03:18:57.228Z,2.60
2019-03-10T03:19:59.311Z,2.40
2019-03-10T03:21:01.522Z,2.60
2019-03-10T03:22:03.407Z,3.40
2019-03-10T03:23:05.592Z,3.60
2019-03-10T03:24:09.818Z,3.40
2019-03-10T03:25:12.470Z,3.00
2019-03-10T03:26:14.685Z,3.20
2019-03-10T03:27:16.898Z,2.40
2019-03-10T03:28:18.873Z,3.00
2019-03-10T03:29:20.997Z,3.60
2019-03-10T03:30:23.158Z,2.60
2019-03-10T03:31:25.169Z,2.80
2019-03-10T03:32:27.277Z,2.00
2019-03-10T03:33:29.043Z,2.00
2019-03-10T03:34:31.065Z,2.20
2019-03-10T03:35:46.977Z,2.00
2019-03-10T03:36:49.277Z,2.40
2019-03-10T03:37:51.251Z,2.80
2019-03-10T03:39:18.213Z,2.60
2019-03-10T03:40:20.162Z,3.80
2019-03-10T03:41:24.049Z,2.60
2019-03-10T03:42:25.890Z,2.00
2019-03-10T03:43:28.411Z,3.00
2019-03-10T03:44:30.753Z,2.00
2019-03-10T03:45:32.721Z,2.60
2019-03-10T03:46:34.868Z,3.60
2019-03-10T03:47:38.076Z,2.80
2019-03-10T03:48:40.038Z,3.00
2019-03-10T03:49:41.993Z,2.00
2019-03-10T03:50:44.171Z,2.60
2019-03-10T03:51:46.038Z,4.20
2019-03-10T03:52:48.141Z,4.60
2019-03-10T03:53:50.148Z,3.60
2019-03-10T03:54:51.901Z,2.20
2019-03-10T03:55:53.868Z,2.40
2019-03-10T03:56:55.944Z,2.00
2019-03-10T03:57:57.669Z,2.00
2019-03-10T03:59:00.726Z,3.00
2019-03-10T04:00:08.590Z,4.80
2019-03-10T04:01:24.914Z,3.40
2019-03-10T04:02:37.953Z,3.40
2019-03-10T04:03:40.013Z,2.80
2019-03-10T04:04:41.961Z,2.00
2019-03-10T04:05:44.060Z,3.00
2019-03-10T04:06:46.083Z,3.60
2019-03-10T04:07:48.336Z,4.20
2019-03-10T04:08:50.288Z,2.00
2019-03-10T04:09:51.962Z,2.60
2019-03-10T04:10:54.051Z,4.00
2019-03-10T04:11:55.969Z,3.60
2019-03-10T04:12:57.662Z,2.80
2019-03-10T04:13:59.889Z,2.60
2019-03-10T04:15:03.536Z,3.00
2019-03-10T04:16:05.557Z,5.20
2019-03-10T04:17:07.649Z,3.80
2019-03-10T04:18:09.460Z,5.00
2019-03-10T04:19:11.614Z,2.60
2019-03-10T04:20:13.737Z,2.60
2019-03-10T04:21:16.167Z,3.00
2019-03-10T04:22:17.882Z,2.80
2019-03-10T04:23:19.850Z,3.40
2019-03-10T04:24:21.910Z,3.00
2019-03-10T04:25:23.948Z,2.40
2019-03-10T04:26:27.946Z,2.00
2019-03-10T04:27:29.878Z,4.00
2019-03-10T04:28:32.296Z,2.60
2019-03-10T04:29:34.349Z,2.80
2019-03-10T04:30:36.331Z,2.60
2019-03-10T04:31:38.510Z,5.00
2019-03-10T04:32:40.673Z,2.00
2019-03-10T04:33:42.510Z,3.00
2019-03-10T04:34:44.553Z,3.60
2019-03-10T04:35:46.614Z,2.60
2019-03-10T04:36:48.687Z,4.60
2019-03-10T04:37:50.774Z,3.00
2019-03-10T04:38:53.091Z,5.00
2019-03-10T04:39:55.070Z,2.20
2019-03-10T04:40:57.009Z,4.20
2019-03-10T04:41:58.968Z,3.80
2019-03-10T04:43:00.717Z,2.00
2019-03-10T04:44:02.707Z,4.60
2019-03-10T04:45:06.237Z,2.00
2019-03-10T04:46:08.103Z,2.40
2019-03-10T04:47:09.957Z,2.60
2019-03-10T04:48:11.979Z,3.00
2019-03-10T04:49:13.953Z,4.20
2019-03-10T04:50:16.559Z,3.00
2019-03-10T04:51:18.927Z,2.60
2019-03-10T04:52:20.849Z,3.00
2019-03-10T04:53:22.715Z,2.00
2019-03-10T04:54:29.803Z,2.40
2019-03-10T04:55:33.870Z,2.20
2019-03-10T04:56:40.497Z,2.40
2019-03-10T04:57:59.407Z,4.00
2019-03-10T04:59:01.589Z,4.00
2019-03-10T05:00:06.485Z,5.20
2019-03-10T05:01:08.698Z,4.00
2019-03-10T05:02:10.676Z,3.20
2019-03-10T05:03:12.744Z,2.00
2019-03-10T05:04:14.534Z,6.20
2019-03-10T05:05:16.641Z,3.60
2019-03-10T05:06:18.828Z,3.00
2019-03-10T05:07:20.902Z,2.60
2019-03-10T05:08:23.025Z,3.80
2019-03-10T05:09:24.743Z,3.60
2019-03-10T05:10:26.748Z,3.40
2019-03-10T05:11:29.000Z,5.80
2019-03-10T05:12:30.980Z,3.00
2019-03-10T05:13:32.834Z,2.80
2019-03-10T05:14:35.014Z,4.20
2019-03-10T05:15:37.135Z,3.00
2019-03-10T05:16:39.139Z,1.40
2019-03-10T05:17:41.107Z,4.00
2019-03-10T05:18:42.858Z,5.80
2019-03-10T05:19:44.676Z,3.20
2019-03-10T05:20:47.784Z,2.00
2019-03-10T05:21:49.701Z,2.00
2019-03-10T05:23:13.776Z,3.00
2019-03-10T05:24:16.798Z,3.00
2019-03-10T05:25:22.382Z,3.80
2019-03-10T05:26:24.320Z,2.60
2019-03-10T05:27:26.165Z,3.00
2019-03-10T05:28:35.061Z,1.40
2019-03-10T05:29:39.105Z,3.20
2019-03-10T05:30:41.414Z,2.00
2019-03-10T05:31:43.356Z,1.60
2019-03-10T05:32:45.435Z,3.00
2019-03-10T05:33:47.449Z,4.00
2019-03-10T05:34:49.420Z,2.20
2019-03-10T05:35:51.599Z,2.00
2019-03-10T05:36:53.251Z,3.00
2019-03-10T05:37:55.357Z,3.00
2019-03-10T05:38:57.343Z,2.20
2019-03-10T05:39:59.070Z,4.00
2019-03-10T05:41:01.238Z,2.20
2019-03-10T05:42:03.319Z,2.00
2019-03-10T05:43:05.021Z,2.20
2019-03-10T05:44:07.143Z,2.00
2019-03-10T05:45:11.003Z,2.00
2019-03-10T05:46:12.771Z,2.80
2019-03-10T05:47:14.665Z,2.80
2019-03-10T05:48:16.875Z,2.40
2019-03-10T05:49:18.799Z,3.00
2019-03-10T05:50:20.751Z,5.20
2019-03-10T05:51:22.843Z,2.80
2019-03-10T05:52:24.839Z,2.00
2019-03-10T05:53:27.007Z,3.80
2019-03-10T05:54:29.127Z,2.20
2019-03-10T05:55:33.185Z,2.00
2019-03-10T05:56:35.261Z,3.00
2019-03-10T05:57:37.190Z,1.60
2019-03-10T05:58:39.199Z,2.80
2019-03-10T05:59:41.069Z,3.00
2019-03-10T06:00:43.463Z,2.80
2019-03-10T06:01:45.663Z,3.40
2019-03-10T06:02:47.636Z,3.60
2019-03-10T06:03:49.316Z,2.00
2019-03-10T06:04:51.367Z,2.00
2019-03-10T06:05:53.406Z,4.40
2019-03-10T06:06:55.217Z,3.20
2019-03-10T06:07:57.216Z,4.00
2019-03-10T06:08:59.236Z,2.00
2019-03-10T06:10:01.112Z,3.40
2019-03-10T06:11:03.370Z,4.20
2019-03-10T06:12:05.446Z,2.00
2019-03-10T06:13:07.150Z,5.00
2019-03-10T06:14:09.196Z,2.20
2019-03-10T06:15:11.413Z,2.00
2019-03-10T06:16:13.476Z,2.80
2019-03-10T06:17:15.500Z,3.00
2019-03-10T06:18:17.209Z,2.40
2019-03-10T06:19:19.000Z,4.80
2019-03-10T06:20:20.978Z,2.60
2019-03-10T06:21:23.178Z,2.40
2019-03-10T06:22:25.130Z,3.00
2019-03-10T06:23:28.644Z,3.00
2019-03-10T06:24:30.413Z,2.60
2019-03-10T06:25:34.998Z,4.40
2019-03-10T06:26:36.239Z,2.80
2019-03-10T06:27:38.204Z,3.00
2019-03-10T06:28:40.241Z,3.00
2019-03-10T06:29:42.253Z,3.00
2019-03-10T06:30:44.466Z,2.00
2019-03-10T06:31:46.618Z,3.60
2019-03-10T06:32:48.513Z,3.40
2019-03-10T06:33:50.253Z,3.60
2019-03-10T06:34:52.141Z,3.00
2019-03-10T06:35:54.272Z,2.00
2019-03-10T06:36:55.965Z,3.00
2019-03-10T06:37:57.995Z,3.00
2019-03-10T06:39:00.501Z,3.00
2019-03-10T06:40:06.785Z,3.80
2019-03-10T06:41:08.892Z,3.40
2019-03-10T06:42:10.995Z,3.00
2019-03-10T06:43:12.961Z,2.60
2019-03-10T06:44:14.827Z,3.60
2019-03-10T06:45:16.689Z,3.00
2019-03-10T06:46:18.782Z,3.60
2019-03-10T06:47:20.677Z,3.40
2019-03-10T06:48:22.557Z,3.60
2019-03-10T06:49:24.656Z,3.00
2019-03-10T06:50:26.544Z,5.00
2019-03-10T06:51:28.719Z,2.60
2019-03-10T06:52:30.486Z,2.00
2019-03-10T06:53:32.444Z,2.00
2019-03-10T06:54:35.034Z,2.00
2019-03-10T06:55:37.344Z,4.00
2019-03-10T06:56:39.284Z,2.00
2019-03-10T06:57:43.372Z,3.20
2019-03-10T06:58:45.386Z,2.00
2019-03-10T06:59:49.851Z,6.40
2019-03-10T07:00:51.364Z,4.40
2019-03-10T07:01:54.415Z,2.60
2019-03-10T07:02:56.478Z,2.60
2019-03-10T07:03:58.416Z,3.80
2019-03-10T07:05:00.340Z,2.80
2019-03-10T07:06:02.657Z,2.80
2019-03-10T07:07:05.031Z,5.80
2019-03-10T07:08:07.998Z,3.00
2019-03-10T07:09:09.682Z,4.80
2019-03-10T07:10:14.245Z,3.60
2019-03-10T07:11:16.233Z,2.60
2019-03-10T07:12:18.754Z,4.60
2019-03-10T07:13:22.714Z,3.00
2019-03-10T07:14:25.500Z,3.20
2019-03-10T07:15:28.340Z,2.00
2019-03-10T07:16:30.626Z,3.60
2019-03-10T07:17:32.530Z,4.00
2019-03-10T07:18:34.514Z,4.40
2019-03-10T07:19:36.224Z,6.80
2019-03-10T07:20:38.436Z,2.60
2019-03-10T07:21:40.372Z,4.00
2019-03-10T07:22:42.545Z,4.00
2019-03-10T07:23:44.613Z,2.40
2019-03-10T07:24:46.317Z,3.00
2019-03-10T07:25:50.439Z,3.00
2019-03-10T07:26:52.307Z,3.60
2019-03-10T07:27:59.642Z,3.00
2019-03-10T07:29:05.987Z,3.80
2019-03-10T07:30:26.665Z,2.80
2019-03-10T07:31:30.728Z,5.00
2019-03-10T07:32:40.320Z,4.00
2019-03-10T07:33:52.717Z,3.00
2019-03-10T07:34:54.581Z,3.40
2019-03-10T07:35:58.371Z,3.00
2019-03-10T07:37:14.425Z,3.60
2019-03-10T07:38:18.322Z,3.60
2019-03-10T07:39:22.119Z,2.20
2019-03-10T07:40:24.155Z,2.00
2019-03-10T07:41:26.166Z,2.00
2019-03-10T07:42:29.965Z,1.60
2019-03-10T07:43:33.518Z,1.20
2019-03-10T07:44:40.142Z,3.00
2019-03-10T07:45:46.911Z,3.20
2019-03-10T07:46:48.819Z,4.00
2019-03-10T07:47:55.614Z,5.00
2019-03-10T07:49:18.316Z,2.80
2019-03-10T07:50:25.172Z,2.40
2019-03-10T07:51:31.926Z,3.00
2019-03-10T07:52:41.578Z,2.60
2019-03-10T07:53:50.942Z,3.20
2019-03-10T07:54:52.610Z,4.20
2019-03-10T07:55:56.614Z,3.00
2019-03-10T07:57:06.184Z,4.80
2019-03-10T07:58:24.882Z,3.80
2019-03-10T07:59:32.428Z,3.40
2019-03-10T08:00:46.448Z,3.00
2019-03-10T08:01:56.066Z,3.20
2019-03-10T08:03:08.849Z,4.40
2019-03-10T08:04:15.530Z,4.60
2019-03-10T08:05:31.731Z,2.80
2019-03-10T08:06:52.466Z,5.00
2019-03-10T08:08:13.237Z,3.00
2019-03-10T08:09:17.142Z,4.20
2019-03-10T08:10:30.654Z,3.20
2019-03-10T08:11:49.219Z,3.80
2019-03-10T08:13:09.628Z,5.20
2019-03-10T08:14:29.487Z,3.60
2019-03-10T08:15:31.565Z,2.40
2019-03-10T08:16:51.827Z,3.60
2019-03-10T08:17:55.720Z,3.60
2019-03-10T08:19:08.380Z,3.40
2019-03-10T08:20:12.176Z,2.80
2019-03-10T08:21:19.675Z,2.00
2019-03-10T08:22:26.445Z,4.80
2019-03-10T08:23:32.808Z,3.00
2019-03-10T08:24:37.363Z,3.00
2019-03-10T08:25:51.526Z,5.00
2019-03-10T08:27:07.293Z,4.00
2019-03-10T08:28:11.201Z,3.60
2019-03-10T08:29:31.932Z,2.80
2019-03-10T08:30:53.813Z,3.80
2019-03-10T08:32:04.863Z,3.00
2019-03-10T08:33:25.549Z,2.40
2019-03-10T08:34:27.407Z,3.20
2019-03-10T08:35:31.368Z,2.00
2019-03-10T08:36:35.259Z,4.00
2019-03-10T08:37:41.901Z,3.60
2019-03-10T08:38:52.812Z,2.80
2019-03-10T08:40:14.907Z,3.00
2019-03-10T08:41:34.784Z,4.00
2019-03-10T08:42:41.369Z,2.00
2019-03-10T08:43:43.367Z,2.40
2019-03-10T08:44:47.357Z,3.20
2019-03-10T08:46:00.798Z,4.60
2019-03-10T08:47:20.021Z,3.00
2019-03-10T08:48:23.810Z,2.00
2019-03-10T08:49:28.410Z,3.00
2019-03-10T08:50:41.069Z,3.00
2019-03-10T08:51:44.673Z,4.00
2019-03-10T08:52:57.686Z,2.80
2019-03-10T08:54:01.462Z,2.20
2019-03-10T08:55:11.557Z,2.80
2019-03-10T08:56:13.515Z,2.80
2019-03-10T08:57:17.206Z,3.00
2019-03-10T08:58:23.662Z,4.00
2019-03-10T08:59:28.829Z,2.80
2019-03-10T09:00:41.545Z,2.00
2019-03-10T09:01:45.151Z,2.40
2019-03-10T09:02:47.097Z,3.80
2019-03-10T09:03:51.077Z,3.00
2019-03-10T09:05:11.834Z,3.00
2019-03-10T09:06:22.741Z,2.40
2019-03-10T09:07:32.183Z,3.00
2019-03-10T09:08:39.215Z,2.00
2019-03-10T09:09:55.403Z,3.00
2019-03-10T09:11:01.881Z,3.00
2019-03-10T09:12:04.085Z,4.00
2019-03-10T09:13:16.872Z,2.40
2019-03-10T09:14:23.419Z,3.40
2019-03-10T09:15:41.263Z,2.00
2019-03-10T09:16:50.958Z,3.00
2019-03-10T09:18:07.181Z,2.80
2019-03-10T09:19:27.639Z,2.00
2019-03-10T09:20:41.843Z,2.20
2019-03-10T09:21:45.474Z,4.60
2019-03-10T09:22:49.358Z,5.00
2019-03-10T09:24:09.435Z,3.00
2019-03-10T09:25:18.459Z,3.40
2019-03-10T09:26:28.995Z,4.00
2019-03-10T09:27:49.184Z,4.40
2019-03-10T09:29:06.144Z,2.80
2019-03-10T09:30:28.313Z,6.00
2019-03-10T09:31:32.201Z,3.00
2019-03-10T09:32:52.705Z,4.00
2019-03-10T09:34:12.834Z,3.80
2019-03-10T09:35:19.407Z,4.60
2019-03-10T09:36:23.210Z,5.00
2019-03-10T09:37:29.949Z,3.60
2019-03-10T09:38:40.468Z,2.60
2019-03-10T09:40:00.516Z,3.00
2019-03-10T09:41:17.230Z,4.00
2019-03-10T09:42:26.969Z,5.00
2019-03-10T09:43:33.509Z,4.00
2019-03-10T09:44:45.948Z,3.00
2019-03-10T09:46:03.219Z,2.00
2019-03-10T09:47:20.280Z,3.00
2019-03-10T09:48:29.996Z,3.60
2019-03-10T09:49:39.324Z,3.60
2019-03-10T09:50:50.044Z,3.40
2019-03-10T09:52:10.036Z,4.20
2019-03-10T09:53:13.911Z,4.20
2019-03-10T09:54:17.500Z,4.60
2019-03-10T09:55:37.358Z,4.20
2019-03-10T09:56:42.344Z,4.40
2019-03-10T09:58:03.044Z,4.00
2019-03-10T09:59:23.609Z,3.60
2019-03-10T10:00:25.443Z,4.60
2019-03-10T10:01:36.035Z,5.00
2019-03-10T10:02:57.993Z,5.00
2019-03-10T10:04:10.848Z,3.00
2019-03-10T10:05:17.215Z,2.00
2019-03-10T10:06:22.295Z,3.00
2019-03-10T10:07:27.213Z,3.60
2019-03-10T10:08:33.922Z,4.00
2019-03-10T10:09:57.201Z,5.20
2019-03-10T10:11:07.241Z,4.00
2019-03-10T10:12:13.623Z,4.00
2019-03-10T10:13:16.725Z,4.20
2019-03-10T10:14:23.644Z,5.60
2019-03-10T10:15:33.559Z,4.00
2019-03-10T10:16:35.557Z,4.00
2019-03-10T10:17:40.945Z,5.80
2019-03-10T10:18:50.548Z,6.00
2019-03-10T10:20:01.648Z,5.20
2019-03-10T10:21:23.697Z,4.60
2019-03-10T10:22:30.485Z,4.20
2019-03-10T10:23:32.352Z,5.00
2019-03-10T10:24:38.873Z,7.40
2019-03-10T10:25:54.931Z,6.40
2019-03-10T10:27:04.123Z,5.20
2019-03-10T10:28:07.733Z,7.00
2019-03-10T10:29:12.761Z,5.00
2019-03-10T10:30:14.554Z,6.60
2019-03-10T10:31:21.181Z,4.60
2019-03-10T10:32:32.478Z,6.00
2019-03-10T10:33:36.478Z,6.00
2019-03-10T10:34:56.693Z,5.20
2019-03-10T10:36:07.694Z,6.80
2019-03-10T10:37:23.218Z,7.00
2019-03-10T10:38:30.285Z,5.00
2019-03-10T10:39:36.680Z,4.60
2019-03-10T10:40:40.773Z,3.00
2019-03-10T10:41:42.868Z,5.00
2019-03-10T10:42:45.066Z,6.80
2019-03-10T10:43:47.082Z,3.60
2019-03-10T10:44:51.592Z,2.80
2019-03-10T10:45:55.306Z,4.40
2019-03-10T10:47:06.930Z,8.60
2019-03-10T10:48:10.966Z,4.00
2019-03-10T10:49:14.649Z,4.40
2019-03-10T10:50:18.647Z,5.20
2019-03-10T10:51:22.955Z,4.00
2019-03-10T10:52:27.734Z,4.00
2019-03-10T10:53:40.724Z,3.00
2019-03-10T10:54:45.422Z,4.80
2019-03-10T10:55:58.529Z,4.20
2019-03-10T10:57:02.296Z,4.40
2019-03-10T10:58:23.680Z,3.20
2019-03-10T10:59:34.730Z,4.20
2019-03-10T11:00:38.598Z,4.00
2019-03-10T11:01:52.901Z,4.00
2019-03-10T11:03:00.811Z,3.00
2019-03-10T11:04:19.680Z,4.60
2019-03-10T11:05:26.482Z,3.80
2019-03-10T11:06:37.795Z,3.00
2019-03-10T11:07:53.579Z,5.40
2019-03-10T11:09:02.702Z,5.00
2019-03-10T11:10:18.650Z,4.00
2019-03-10T11:11:20.587Z,3.20
2019-03-10T11:12:28.423Z,6.60
2019-03-10T11:13:30.381Z,3.40
2019-03-10T11:14:34.926Z,4.80
2019-03-10T11:15:37.103Z,4.00
2019-03-10T11:16:54.450Z,4.00
2019-03-10T11:18:10.197Z,6.80
2019-03-10T11:19:21.336Z,3.40
2019-03-10T11:20:41.817Z,3.40
2019-03-10T11:21:48.799Z,4.80
2019-03-10T11:23:01.579Z,3.80
2019-03-10T11:24:05.929Z,4.40
2019-03-10T11:25:09.618Z,5.60
2019-03-10T11:26:16.219Z,5.40
2019-03-10T11:27:18.211Z,7.40
2019-03-10T11:28:37.787Z,3.60
2019-03-10T11:29:45.819Z,4.60
2019-03-10T11:30:49.754Z,3.40
2019-03-10T11:31:54.908Z,3.40
2019-03-10T11:33:01.668Z,5.20
2019-03-10T11:34:15.655Z,10.40
2019-03-10T11:35:19.432Z,5.00
2019-03-10T11:36:21.239Z,5.40
2019-03-10T11:37:27.648Z,4.60
2019-03-10T11:38:40.769Z,5.00
2019-03-10T11:39:47.340Z,4.00
2019-03-10T11:41:01.285Z,8.60
2019-03-10T11:42:14.271Z,7.00
2019-03-10T11:43:22.792Z,9.00
2019-03-10T11:44:26.793Z,6.60
2019-03-10T11:45:37.266Z,13.00
2019-03-10T11:46:39.242Z,8.80
2019-03-10T11:47:43.348Z,8.20
2019-03-10T11:48:47.322Z,9.40
2019-03-10T11:49:59.576Z,7.60
2019-03-10T11:51:12.336Z,8.00
2019-03-10T11:52:24.953Z,11.00
2019-03-10T11:53:29.258Z,9.60
2019-03-10T11:54:38.715Z,7.60
2019-03-10T11:55:42.695Z,6.00
2019-03-10T11:56:55.722Z,7.80
2019-03-10T11:57:59.693Z,10.60
2019-03-10T11:59:06.399Z,8.00
2019-03-10T12:00:19.209Z,9.80
2019-03-10T12:01:23.326Z,7.40
2019-03-10T12:02:37.661Z,7.80
2019-03-10T12:03:47.427Z,9.80
2019-03-10T12:05:04.763Z,8.20
2019-03-10T12:06:08.534Z,9.00
2019-03-10T12:07:10.387Z,9.00
2019-03-10T12:08:15.155Z,8.00
2019-03-10T12:09:23.237Z,8.80
2019-03-10T12:10:25.451Z,6.20
2019-03-10T12:11:28.115Z,9.20
2019-03-10T12:12:29.893Z,11.00
2019-03-10T12:13:31.587Z,10.00
2019-03-10T12:14:33.702Z,6.20
2019-03-10T12:15:35.454Z,10.80
2019-03-10T12:16:37.359Z,14.80
2019-03-10T12:17:39.335Z,11.40
2019-03-10T12:18:41.344Z,8.80
2019-03-10T12:19:43.556Z,7.80
2019-03-10T12:20:45.404Z,9.00
2019-03-10T12:21:48.464Z,10.00
2019-03-10T12:22:50.679Z,7.20
2019-03-10T12:23:54.144Z,7.60
2019-03-10T12:24:55.889Z,8.60
2019-03-10T12:25:58.114Z,7.40
2019-03-10T12:27:00.415Z,8.00
2019-03-10T12:28:02.386Z,6.40
2019-03-10T12:29:04.450Z,7.40
2019-03-10T12:30:13.794Z,9.00
2019-03-10T12:31:15.659Z,9.00
2019-03-10T12:32:17.576Z,12.60
2019-03-10T12:33:19.600Z,13.60
2019-03-10T12:34:21.587Z,6.80
2019-03-10T12:35:33.847Z,8.80
2019-03-10T12:36:27.632Z,25.60
2019-03-10T12:37:29.816Z,20.00
2019-03-10T12:38:31.826Z,21.80
2019-03-10T12:39:33.609Z,18.80
2019-03-10T12:40:37.079Z,19.20
2019-03-10T12:41:39.139Z,19.20
2019-03-10T12:42:40.894Z,21.00
2019-03-10T12:43:42.794Z,20.20
2019-03-10T12:44:44.789Z,25.40
2019-03-10T12:45:46.619Z,21.40
2019-03-10T12:46:48.595Z,24.20
2019-03-10T12:47:50.543Z,20.20
2019-03-10T12:48:52.780Z,22.20
2019-03-10T12:49:54.617Z,25.60
2019-03-10T12:50:56.979Z,20.00
2019-03-10T12:51:58.998Z,21.60
2019-03-10T12:53:01.095Z,19.20
2019-03-10T12:54:03.301Z,27.20
2019-03-10T12:55:07.952Z,23.40
2019-03-10T12:56:09.817Z,21.60
2019-03-10T12:57:11.811Z,27.00
2019-03-10T12:58:13.478Z,30.40
2019-03-10T12:59:15.614Z,28.60
2019-03-10T13:00:17.704Z,25.80
2019-03-10T13:01:19.593Z,25.40
2019-03-10T13:02:21.728Z,27.80
2019-03-10T13:03:23.696Z,31.80
2019-03-10T13:04:25.869Z,23.20
2019-03-10T13:05:28.383Z,31.20
2019-03-10T13:06:30.675Z,31.40
2019-03-10T13:07:32.892Z,32.00
2019-03-10T13:08:34.889Z,33.80
2019-03-10T13:09:36.585Z,27.60
2019-03-10T13:10:38.534Z,30.20
2019-03-10T13:11:40.576Z,33.40
2019-03-10T13:12:42.681Z,35.00
2019-03-10T13:13:44.714Z,28.60
2019-03-10T13:14:46.795Z,31.20
2019-03-10T13:15:48.446Z,28.00
2019-03-10T13:16:51.440Z,33.40
2019-03-10T13:17:53.493Z,31.40
2019-03-10T13:18:55.133Z,32.40
2019-03-10T13:19:57.139Z,28.80
2019-03-10T13:20:59.107Z,32.80
2019-03-10T13:22:01.206Z,32.20
2019-03-10T13:23:03.360Z,31.00
2019-03-10T13:24:05.263Z,27.60
2019-03-10T13:25:09.879Z,27.40
2019-03-10T13:26:11.760Z,32.00
2019-03-10T13:27:13.749Z,28.00
2019-03-10T13:28:15.561Z,27.40
2019-03-10T13:29:17.506Z,28.80
2019-03-10T13:30:19.668Z,31.20
2019-03-10T13:31:21.822Z,27.20
2019-03-10T13:32:23.711Z,31.40
2019-03-10T13:33:25.430Z,29.20
2019-03-10T13:34:27.300Z,27.20
2019-03-10T13:35:29.416Z,28.80
2019-03-10T13:36:31.472Z,30.40
2019-03-10T13:37:33.583Z,30.00
2019-03-10T13:38:35.659Z,26.00
2019-03-10T13:39:37.356Z,27.40
2019-03-10T13:40:39.360Z,31.20
2019-03-10T13:41:41.351Z,28.60
2019-03-10T13:42:45.063Z,26.00
2019-03-10T13:43:46.953Z,28.40
2019-03-10T13:44:49.079Z,28.20
2019-03-10T13:45:50.867Z,25.40
2019-03-10T13:46:53.025Z,30.60
2019-03-10T13:47:55.115Z,28.20
2019-03-10T13:48:57.187Z,26.20
2019-03-10T13:49:59.228Z,26.20
2019-03-10T13:51:01.106Z,22.40
2019-03-10T13:52:03.021Z,26.60
2019-03-10T13:53:05.122Z,26.00
2019-03-10T13:54:07.045Z,23.20
2019-03-10T13:55:09.556Z,28.60
2019-03-10T13:56:12.755Z,25.60
2019-03-10T13:57:14.784Z,30.60
2019-03-10T13:58:16.869Z,27.80
2019-03-10T13:59:19.244Z,21.00
2019-03-10T14:00:24.146Z,24.60
2019-03-10T14:01:25.949Z,23.80
2019-03-10T14:02:27.953Z,23.40
2019-03-10T14:03:30.158Z,26.20
2019-03-10T14:04:32.251Z,27.80
2019-03-10T14:05:34.343Z,21.20
2019-03-10T14:06:37.622Z,26.40
2019-03-10T14:07:39.842Z,17.00
2019-03-10T14:08:41.956Z,20.20
2019-03-10T14:09:43.620Z,22.00
2019-03-10T14:10:46.116Z,22.20
2019-03-10T14:11:48.302Z,22.20
2019-03-10T14:12:50.231Z,25.40
2019-03-10T14:13:52.194Z,20.40
2019-03-10T14:14:54.232Z,22.40
2019-03-10T14:15:56.202Z,20.80
2019-03-10T14:16:58.300Z,19.80
2019-03-10T14:18:00.232Z,21.40
2019-03-10T14:19:02.062Z,22.80
2019-03-10T14:20:10.090Z,19.60
2019-03-10T14:21:11.971Z,22.00